createdAt,value
2022-10-29T00:00:12.401Z,8.15
2022-10-29T00:01:14.908Z,8.30
2022-10-29T00:02:17.319Z,7.50
2022-10-29T00:03:20.831Z,7.75
2022-10-29T00:04:23.241Z,7.47
2022-10-29T00:05:25.619Z,7.50
2022-10-29T00:06:28.370Z,7.88
2022-10-29T00:07:30.887Z,8.20
2022-10-29T00:08:35.224Z,7.68
2022-10-29T00:09:37.433Z,7.97
2022-10-29T00:10:39.807Z,6.80
2022-10-29T00:11:41.942Z,7.32
2022-10-29T00:12:44.336Z,7.32
2022-10-29T00:13:48.374Z,7.40
2022-10-29T00:14:50.819Z,6.82
2022-10-29T00:15:53.212Z,7.32
2022-10-29T00:16:56.973Z,7.25
2022-10-29T00:17:59.421Z,6.93
2022-10-29T00:19:01.683Z,7.22
2022-10-29T00:20:04.425Z,6.70
2022-10-29T00:21:10.686Z,7.05
2022-10-29T00:22:12.820Z,6.47
2022-10-29T00:23:15.182Z,7.32
2022-10-29T00:24:17.833Z,6.90
2022-10-29T00:25:20.022Z,7.07
2022-10-29T00:26:22.583Z,6.57
2022-10-29T00:27:25.167Z,6.75
2022-10-29T00:28:27.656Z,6.13
2022-10-29T00:29:29.791Z,6.10
2022-10-29T00:30:31.957Z,6.97
2022-10-29T00:31:35.994Z,6.22
2022-10-29T00:32:38.569Z,6.57
2022-10-29T00:33:40.778Z,6.68
2022-10-29T00:34:43.112Z,6.68
2022-10-29T00:35:59.631Z,6.30
2022-10-29T00:37:01.798Z,6.30
2022-10-29T00:38:03.973Z,6.80
2022-10-29T00:39:06.166Z,6.68
2022-10-29T00:40:09.252Z,6.70
2022-10-29T00:41:15.189Z,6.43
2022-10-29T00:42:18.104Z,7.03
2022-10-29T00:43:22.370Z,7.10
2022-10-29T00:44:30.901Z,7.28
2022-10-29T00:45:33.058Z,6.55
2022-10-29T00:46:36.175Z,6.68
2022-10-29T00:47:40.154Z,6.82
2022-10-29T00:48:48.120Z,6.70
2022-10-29T00:49:59.103Z,6.70
2022-10-29T00:51:05.028Z,6.72
2022-10-29T00:52:09.136Z,6.53
2022-10-29T00:53:11.884Z,7.07
2022-10-29T00:54:16.340Z,7.07
2022-10-29T00:55:20.039Z,5.97
2022-10-29T00:56:25.486Z,6.75
2022-10-29T00:57:34.405Z,6.82
2022-10-29T00:58:37.040Z,6.55
2022-10-29T00:59:40.040Z,7.15
2022-10-29T01:00:43.720Z,6.90
2022-10-29T01:01:49.253Z,6.63
2022-10-29T01:02:51.655Z,6.60
2022-10-29T01:03:55.674Z,7.38
2022-10-29T01:04:57.980Z,6.90
2022-10-29T01:06:02.108Z,7.25
2022-10-29T01:07:05.116Z,6.47
2022-10-29T01:08:07.896Z,6.70
2022-10-29T01:09:10.283Z,6.93
2022-10-29T01:10:13.545Z,6.88
2022-10-29T01:11:27.933Z,6.47
2022-10-29T01:12:41.529Z,5.47
2022-10-29T01:13:49.572Z,7.13
2022-10-29T01:15:11.100Z,6.70
2022-10-29T01:16:13.182Z,6.95
2022-10-29T01:17:54.166Z,6.20
2022-10-29T01:19:34.253Z,6.68
2022-10-29T01:21:11.967Z,6.65
2022-10-29T01:22:23.547Z,6.72
2022-10-29T01:23:48.990Z,6.88
2022-10-29T01:25:09.207Z,6.85
2022-10-29T01:26:14.570Z,6.55
2022-10-29T01:27:52.223Z,6.50
2022-10-29T01:29:14.076Z,5.88
2022-10-29T01:30:30.178Z,5.88
2022-10-29T01:31:58.335Z,5.95
2022-10-29T01:33:38.498Z,6.32
2022-10-29T01:34:54.440Z,6.20
2022-10-29T01:36:25.885Z,6.38
2022-10-29T01:37:52.970Z,6.63
2022-10-29T01:39:26.045Z,6.70
2022-10-29T01:40:34.851Z,6.10
2022-10-29T01:42:04.120Z,6.43
2022-10-29T01:43:20.887Z,6.43
2022-10-29T01:44:41.770Z,6.47
2022-10-29T01:45:50.707Z,6.05
2022-10-29T01:47:00.215Z,7.50
2022-10-29T01:48:13.299Z,6.38
2022-10-29T01:49:24.642Z,6.47
2022-10-29T01:50:28.139Z,6.13
2022-10-29T01:51:34.185Z,7.20
2022-10-29T01:52:38.901Z,6.18
2022-10-29T01:53:41.448Z,5.90
2022-10-29T01:54:45.598Z,6.93
2022-10-29T01:55:47.764Z,7.07
2022-10-29T01:56:57.509Z,6.07
2022-10-29T01:57:59.857Z,6.53
2022-10-29T01:59:06.228Z,6.22
2022-10-29T02:00:17.404Z,7.20
2022-10-29T02:01:44.520Z,6.78
2022-10-29T02:02:58.307Z,6.50
2022-10-29T02:04:45.811Z,6.75
2022-10-29T02:06:12.307Z,6.30
2022-10-29T02:07:32.329Z,6.28
2022-10-29T02:08:40.477Z,5.72
2022-10-29T02:09:54.604Z,6.25
2022-10-29T02:11:45.811Z,6.15
2022-10-29T02:12:52.065Z,5.47
2022-10-29T02:14:23.096Z,6.10
2022-10-29T02:15:43.650Z,5.97
2022-10-29T02:16:47.213Z,6.00
2022-10-29T02:17:49.602Z,6.47
2022-10-29T02:18:53.296Z,6.50
2022-10-29T02:19:55.441Z,6.10
2022-10-29T02:20:57.585Z,6.55
2022-10-29T02:21:59.732Z,6.15
2022-10-29T02:23:02.086Z,6.45
2022-10-29T02:24:04.579Z,6.30
2022-10-29T02:25:08.125Z,6.60
2022-10-29T02:26:10.605Z,6.78
2022-10-29T02:27:12.939Z,6.22
2022-10-29T02:28:15.101Z,6.22
2022-10-29T02:29:17.972Z,5.95
2022-10-29T02:30:20.166Z,6.53
2022-10-29T02:31:22.316Z,5.82
2022-10-29T02:32:24.668Z,6.07
2022-10-29T02:33:26.880Z,6.25
2022-10-29T02:34:29.254Z,6.28
2022-10-29T02:35:31.414Z,5.70
2022-10-29T02:36:33.552Z,6.13
2022-10-29T02:37:36.187Z,5.30
2022-10-29T02:38:40.551Z,5.75
2022-10-29T02:39:42.728Z,6.10
2022-10-29T02:40:44.879Z,5.95
2022-10-29T02:41:47.018Z,6.28
2022-10-29T02:42:49.157Z,6.40
2022-10-29T02:43:51.297Z,5.72
2022-10-29T02:44:53.501Z,6.15
2022-10-29T02:46:15.993Z,5.38
2022-10-29T02:47:18.361Z,6.07
2022-10-29T02:48:20.487Z,5.80
2022-10-29T02:49:22.671Z,5.78
2022-10-29T02:50:24.815Z,5.78
2022-10-29T02:51:26.959Z,6.32
2022-10-29T02:52:29.294Z,5.40
2022-10-29T02:53:31.423Z,5.70
2022-10-29T02:54:33.962Z,5.57
2022-10-29T02:55:36.091Z,5.43
2022-10-29T02:56:38.431Z,5.30
2022-10-29T02:57:44.617Z,5.95
2022-10-29T02:58:46.781Z,5.25
2022-10-29T02:59:48.980Z,5.78
2022-10-29T03:00:52.172Z,5.32
2022-10-29T03:01:54.570Z,5.50
2022-10-29T03:02:57.006Z,5.53
2022-10-29T03:03:59.508Z,5.20
2022-10-29T03:05:01.834Z,4.97
2022-10-29T03:06:04.284Z,5.05
2022-10-29T03:07:06.615Z,6.00
2022-10-29T03:08:08.756Z,5.97
2022-10-29T03:09:11.220Z,5.72
2022-10-29T03:10:13.348Z,5.65
2022-10-29T03:11:16.028Z,5.40
2022-10-29T03:12:18.218Z,5.45
2022-10-29T03:13:20.403Z,6.60
2022-10-29T03:14:22.987Z,6.50
2022-10-29T03:15:25.353Z,5.68
2022-10-29T03:16:27.713Z,5.80
2022-10-29T03:17:29.878Z,5.95
2022-10-29T03:18:32.022Z,5.38
2022-10-29T03:19:35.840Z,5.60
2022-10-29T03:20:38.544Z,5.78
2022-10-29T03:21:40.712Z,5.60
2022-10-29T03:22:42.874Z,5.28
2022-10-29T03:23:45.228Z,5.47
2022-10-29T03:24:47.386Z,5.45
2022-10-29T03:25:55.588Z,5.63
2022-10-29T03:26:58.596Z,4.88
2022-10-29T03:28:00.759Z,5.75
2022-10-29T03:29:03.193Z,5.30
2022-10-29T03:30:06.088Z,5.57
2022-10-29T03:31:08.293Z,5.25
2022-10-29T03:32:10.447Z,6.32
2022-10-29T03:33:12.590Z,5.35
2022-10-29T03:34:14.914Z,5.22
2022-10-29T03:35:17.112Z,4.95
2022-10-29T03:36:19.385Z,5.40
2022-10-29T03:37:21.567Z,5.53
2022-10-29T03:38:23.917Z,4.97
2022-10-29T03:39:26.265Z,5.43
2022-10-29T03:40:28.881Z,5.20
2022-10-29T03:41:31.082Z,5.63
2022-10-29T03:42:33.337Z,5.15
2022-10-29T03:43:37.143Z,5.05
2022-10-29T03:44:39.284Z,5.40
2022-10-29T03:45:41.788Z,5.50
2022-10-29T03:46:43.941Z,5.45
2022-10-29T03:47:46.104Z,5.22
2022-10-29T03:48:51.288Z,5.60
2022-10-29T03:49:54.176Z,5.30
2022-10-29T03:51:03.047Z,5.70
2022-10-29T03:52:05.245Z,5.90
2022-10-29T03:53:08.427Z,5.38
2022-10-29T03:54:10.648Z,4.90
2022-10-29T03:55:12.825Z,5.20
2022-10-29T03:56:15.014Z,5.00
2022-10-29T03:57:17.165Z,5.30
2022-10-29T03:58:20.196Z,6.38
2022-10-29T03:59:22.416Z,5.80
2022-10-29T04:00:24.966Z,5.55
2022-10-29T04:01:27.222Z,5.55
2022-10-29T04:02:29.750Z,5.43
2022-10-29T04:03:34.044Z,4.78
2022-10-29T04:04:36.395Z,5.53
2022-10-29T04:05:38.988Z,5.63
2022-10-29T04:06:41.154Z,4.93
2022-10-29T04:07:43.457Z,5.30
2022-10-29T04:08:45.892Z,5.78
2022-10-29T04:09:48.105Z,5.15
2022-10-29T04:10:51.363Z,4.95
2022-10-29T04:11:53.522Z,5.30
2022-10-29T04:12:56.322Z,4.57
2022-10-29T04:13:58.688Z,5.20
2022-10-29T04:15:01.078Z,4.90
2022-10-29T04:16:03.563Z,5.30
2022-10-29T04:17:05.845Z,6.00
2022-10-29T04:18:08.902Z,5.10
2022-10-29T04:19:11.101Z,5.50
2022-10-29T04:20:27.888Z,5.35
2022-10-29T04:28:37.004Z,5.00
2022-10-29T04:28:43.987Z,5.88
2022-10-29T04:29:46.428Z,5.88
2022-10-29T04:30:49.835Z,5.55
2022-10-29T04:31:52.299Z,6.00
2022-10-29T04:32:59.437Z,5.28
2022-10-29T04:34:02.097Z,6.07
2022-10-29T04:35:04.944Z,5.10
2022-10-29T04:36:07.580Z,6.13
2022-10-29T04:37:10.156Z,6.47
2022-10-29T04:38:12.983Z,5.93
2022-10-29T04:39:18.283Z,5.65
2022-10-29T04:40:26.910Z,4.70
2022-10-29T04:41:29.070Z,5.50
2022-10-29T04:42:37.217Z,4.88
2022-10-29T04:43:39.387Z,5.22
2022-10-29T04:44:41.550Z,5.45
2022-10-29T04:46:50.974Z,5.32
2022-10-29T04:48:03.531Z,5.28
2022-10-29T04:49:05.748Z,5.88
2022-10-29T04:50:08.299Z,5.15
2022-10-29T04:51:25.496Z,5.63
2022-10-29T04:52:28.104Z,5.22
2022-10-29T04:53:30.533Z,5.72
2022-10-29T04:54:32.692Z,5.55
2022-10-29T04:55:39.619Z,5.75
2022-10-29T04:56:41.883Z,5.60
2022-10-29T04:57:49.684Z,5.47
2022-10-29T04:58:52.821Z,5.88
2022-10-29T04:59:54.967Z,5.35
2022-10-29T05:01:05.327Z,5.90
2022-10-29T05:02:08.563Z,5.93
2022-10-29T05:03:11.464Z,5.75
2022-10-29T05:04:13.630Z,5.45
2022-10-29T05:05:17.618Z,5.75
2022-10-29T05:06:19.797Z,5.70
2022-10-29T05:07:21.982Z,5.72
2022-10-29T05:08:24.336Z,5.35
2022-10-29T05:09:26.565Z,5.57
2022-10-29T05:10:31.362Z,5.80
2022-10-29T05:11:33.534Z,5.47
2022-10-29T05:12:36.088Z,5.10
2022-10-29T05:13:38.250Z,5.72
2022-10-29T05:14:40.420Z,5.55
2022-10-29T05:15:42.819Z,5.30
2022-10-29T05:16:45.007Z,5.97
2022-10-29T05:17:47.532Z,5.82
2022-10-29T05:18:49.731Z,5.40
2022-10-29T05:19:52.263Z,5.35
2022-10-29T05:20:55.337Z,5.55
2022-10-29T05:21:57.485Z,5.25
2022-10-29T05:23:01.124Z,5.95
2022-10-29T05:24:03.433Z,5.22
2022-10-29T05:25:06.038Z,5.45
2022-10-29T05:26:08.216Z,5.60
2022-10-29T05:27:10.440Z,5.72
2022-10-29T05:28:22.191Z,6.50
2022-10-29T05:29:24.373Z,5.68
2022-10-29T05:30:26.524Z,5.82
2022-10-29T05:31:29.044Z,5.75
2022-10-29T05:32:31.515Z,5.07
2022-10-29T05:33:33.943Z,6.65
2022-10-29T05:34:38.373Z,5.95
2022-10-29T05:35:41.642Z,6.05
2022-10-29T05:36:43.830Z,6.47
2022-10-29T05:37:56.589Z,6.95
2022-10-29T05:38:58.759Z,6.07
2022-10-29T05:40:00.946Z,6.20
2022-10-29T05:41:03.147Z,6.22
2022-10-29T05:42:06.101Z,6.55
2022-10-29T05:43:08.776Z,6.18
2022-10-29T05:44:10.969Z,6.00
2022-10-29T05:45:13.415Z,6.28
2022-10-29T05:46:16.688Z,6.53
2022-10-29T05:47:18.845Z,6.00
2022-10-29T05:48:21.188Z,5.95
2022-10-29T05:49:23.347Z,6.20
2022-10-29T05:50:26.054Z,6.07
2022-10-29T05:51:28.236Z,7.15
2022-10-29T05:52:30.450Z,7.28
2022-10-29T05:53:32.662Z,7.20
2022-10-29T05:54:34.874Z,6.05
2022-10-29T05:55:37.232Z,5.95
2022-10-29T05:56:39.380Z,6.38
2022-10-29T05:57:41.743Z,5.85
2022-10-29T05:58:44.117Z,6.93
2022-10-29T05:59:46.768Z,5.75
2022-10-29T06:00:48.966Z,5.85
2022-10-29T06:01:51.295Z,6.00
2022-10-29T06:02:53.785Z,6.10
2022-10-29T06:03:56.307Z,5.45
2022-10-29T06:04:58.586Z,6.47
2022-10-29T06:06:00.832Z,6.20
2022-10-29T06:07:03.476Z,7.53
2022-10-29T06:08:05.694Z,5.78
2022-10-29T06:09:08.184Z,6.05
2022-10-29T06:10:10.422Z,5.60
2022-10-29T06:11:12.555Z,6.00
2022-10-29T06:12:14.879Z,6.18
2022-10-29T06:13:19.477Z,6.65
2022-10-29T06:14:21.666Z,5.35
2022-10-29T06:15:23.991Z,5.30
2022-10-29T06:16:26.154Z,5.10
2022-10-29T06:17:28.513Z,6.70
2022-10-29T06:18:30.898Z,6.20
2022-10-29T06:19:33.299Z,5.10
2022-10-29T06:20:36.968Z,6.38
2022-10-29T06:21:39.280Z,5.70
2022-10-29T06:22:41.518Z,5.70
2022-10-29T06:23:44.036Z,5.82
2022-10-29T06:24:46.284Z,5.40
2022-10-29T06:25:48.710Z,6.03
2022-10-29T06:26:53.854Z,6.03
2022-10-29T06:28:07.243Z,6.25
2022-10-29T06:29:09.598Z,6.05
2022-10-29T06:30:12.292Z,5.80
2022-10-29T06:31:14.452Z,6.05
2022-10-29T06:32:16.810Z,6.00
2022-10-29T06:33:19.460Z,5.88
2022-10-29T06:34:21.860Z,5.68
2022-10-29T06:35:24.116Z,5.97
2022-10-29T06:36:26.317Z,5.35
2022-10-29T06:37:29.700Z,6.18
2022-10-29T06:38:31.889Z,6.18
2022-10-29T06:39:34.144Z,6.00
2022-10-29T06:40:36.302Z,5.53
2022-10-29T06:41:38.494Z,5.55
2022-10-29T06:42:41.470Z,6.32
2022-10-29T06:43:43.632Z,5.47
2022-10-29T06:44:45.965Z,6.22
2022-10-29T06:45:51.195Z,5.88
2022-10-29T06:46:53.533Z,6.22
2022-10-29T06:47:56.257Z,6.05
2022-10-29T06:48:58.570Z,5.78
2022-10-29T06:50:00.936Z,5.70
2022-10-29T06:51:03.094Z,6.13
2022-10-29T06:52:05.349Z,6.50
2022-10-29T06:53:12.093Z,5.93
2022-10-29T06:54:14.485Z,7.43
2022-10-29T06:55:16.661Z,6.60
2022-10-29T06:56:18.808Z,5.80
2022-10-29T06:57:23.326Z,5.72
2022-10-29T06:58:25.469Z,6.35
2022-10-29T06:59:27.807Z,6.35
2022-10-29T07:00:31.374Z,6.18
2022-10-29T07:01:33.704Z,6.18
2022-10-29T07:02:36.105Z,6.10
2022-10-29T07:03:38.261Z,7.22
2022-10-29T07:04:40.609Z,6.22
2022-10-29T07:05:43.040Z,6.20
2022-10-29T07:06:45.402Z,5.60
2022-10-29T07:07:47.711Z,6.20
2022-10-29T07:08:49.867Z,5.47
2022-10-29T07:09:52.245Z,6.00
2022-10-29T07:10:54.893Z,5.93
2022-10-29T07:11:57.047Z,5.68
2022-10-29T07:13:00.379Z,6.00
2022-10-29T07:14:02.671Z,6.03
2022-10-29T07:15:05.690Z,6.15
2022-10-29T07:16:07.924Z,5.68
2022-10-29T07:17:10.150Z,5.95
2022-10-29T07:18:12.851Z,5.93
2022-10-29T07:19:15.227Z,6.35
2022-10-29T07:20:18.818Z,5.68
2022-10-29T07:21:21.014Z,7.30
2022-10-29T07:22:23.241Z,7.07
2022-10-29T07:23:25.429Z,6.00
2022-10-29T07:24:27.659Z,5.97
2022-10-29T07:25:31.112Z,6.50
2022-10-29T07:26:33.250Z,6.03
2022-10-29T07:27:35.584Z,6.15
2022-10-29T07:28:37.806Z,6.00
2022-10-29T07:29:40.346Z,6.53
2022-10-29T07:30:43.734Z,6.32
2022-10-29T07:31:45.902Z,6.65
2022-10-29T07:32:48.100Z,6.75
2022-10-29T07:33:50.381Z,7.00
2022-10-29T07:34:52.572Z,5.60
2022-10-29T07:35:59.333Z,5.80
2022-10-29T07:37:01.555Z,5.72
2022-10-29T07:38:10.436Z,5.78
2022-10-29T07:39:13.692Z,5.53
2022-10-29T07:40:16.323Z,5.93
2022-10-29T07:41:18.475Z,6.80
2022-10-29T07:42:20.830Z,6.15
2022-10-29T07:43:23.535Z,6.65
2022-10-29T07:44:25.694Z,6.10
2022-10-29T07:45:28.665Z,7.15
2022-10-29T07:46:30.865Z,6.15
2022-10-29T07:47:33.137Z,6.38
2022-10-29T07:48:35.325Z,6.63
2022-10-29T07:49:37.531Z,5.78
2022-10-29T07:50:39.734Z,5.60
2022-10-29T07:51:42.461Z,5.55
2022-10-29T07:52:44.693Z,4.93
2022-10-29T07:53:46.872Z,6.53
2022-10-29T07:54:49.093Z,6.07
2022-10-29T07:55:57.830Z,5.70
2022-10-29T07:57:00.034Z,6.60
2022-10-29T07:58:05.192Z,5.78
2022-10-29T07:59:09.275Z,6.30
2022-10-29T08:00:13.112Z,5.68
2022-10-29T08:01:15.342Z,5.45
2022-10-29T08:02:17.790Z,5.70
2022-10-29T08:03:20.087Z,5.50
2022-10-29T08:04:22.498Z,6.13
2022-10-29T08:05:26.136Z,5.22
2022-10-29T08:06:28.318Z,5.15
2022-10-29T08:07:30.573Z,7.43
2022-10-29T08:08:34.865Z,5.82
2022-10-29T08:09:37.084Z,5.20
2022-10-29T08:10:39.457Z,5.30
2022-10-29T08:11:41.688Z,4.82
2022-10-29T08:12:57.991Z,5.20
2022-10-29T08:14:00.808Z,5.93
2022-10-29T08:15:05.833Z,5.22
2022-10-29T08:16:08.237Z,4.97
2022-10-29T08:17:10.415Z,7.05
2022-10-29T08:18:17.431Z,6.28
2022-10-29T08:19:19.584Z,6.38
2022-10-29T08:20:23.936Z,6.03
2022-10-29T08:21:26.580Z,6.25
2022-10-29T08:22:30.893Z,5.43
2022-10-29T08:23:33.626Z,5.15
2022-10-29T08:24:35.801Z,6.53
2022-10-29T08:25:41.442Z,5.25
2022-10-29T08:26:44.187Z,5.50
2022-10-29T08:27:46.510Z,5.35
2022-10-29T08:28:48.750Z,5.47
2022-10-29T08:29:50.935Z,5.43
2022-10-29T08:30:53.519Z,5.65
2022-10-29T08:31:57.000Z,6.00
2022-10-29T08:32:59.805Z,6.85
2022-10-29T08:34:04.994Z,5.63
2022-10-29T08:35:11.855Z,5.78
2022-10-29T08:36:14.891Z,5.43
2022-10-29T08:37:17.322Z,5.35
2022-10-29T08:38:19.508Z,5.50
2022-10-29T08:39:21.693Z,4.80
2022-10-29T08:40:32.648Z,5.63
2022-10-29T08:42:01.792Z,5.72
2022-10-29T08:43:47.514Z,6.18
2022-10-29T08:45:17.509Z,5.20
2022-10-29T08:46:28.246Z,5.43
2022-10-29T08:48:47.390Z,5.50
2022-10-29T08:50:19.312Z,5.97
2022-10-29T08:51:27.264Z,5.75
2022-10-29T08:52:33.950Z,5.55
2022-10-29T08:53:58.826Z,6.03
2022-10-29T08:55:22.722Z,5.47
2022-10-29T08:56:40.076Z,6.22
2022-10-29T08:57:46.099Z,5.28
2022-10-29T08:58:59.159Z,4.95
2022-10-29T09:01:17.001Z,6.07
2022-10-29T09:02:19.740Z,5.63
2022-10-29T09:03:22.501Z,6.20
2022-10-29T09:04:36.320Z,5.15
2022-10-29T09:06:02.578Z,5.18
2022-10-29T09:07:13.912Z,5.55
2022-10-29T09:08:32.317Z,5.30
2022-10-29T09:09:40.148Z,5.07
2022-10-29T09:10:55.813Z,6.20
2022-10-29T09:12:03.988Z,5.95
2022-10-29T09:13:17.898Z,8.13
2022-10-29T09:14:20.003Z,6.03
2022-10-29T09:15:41.239Z,5.35
2022-10-29T09:16:43.875Z,5.57
2022-10-29T09:17:49.226Z,6.47
2022-10-29T09:18:51.751Z,4.82
2022-10-29T09:20:18.689Z,5.22
2022-10-29T09:21:51.728Z,5.93
2022-10-29T09:22:58.918Z,4.78
2022-10-29T09:24:24.317Z,4.90
2022-10-29T09:25:46.081Z,6.20
2022-10-29T09:27:08.074Z,4.45
2022-10-29T09:28:37.400Z,5.53
2022-10-29T09:29:58.486Z,5.40
2022-10-29T09:31:13.528Z,5.45
2022-10-29T09:32:23.509Z,5.40
2022-10-29T09:33:27.032Z,5.88
2022-10-29T09:34:35.574Z,5.20
2022-10-29T09:35:47.322Z,5.35
2022-10-29T09:36:50.029Z,5.25
2022-10-29T09:38:00.211Z,5.22
2022-10-29T09:39:12.325Z,4.80
2022-10-29T09:40:32.397Z,5.25
2022-10-29T09:41:35.260Z,4.75
2022-10-29T09:42:42.384Z,6.32
2022-10-29T09:44:02.057Z,5.60
2022-10-29T09:45:11.139Z,5.00
2022-10-29T09:46:37.217Z,5.35
2022-10-29T09:48:09.846Z,5.18
2022-10-29T09:49:24.180Z,4.28
2022-10-29T09:50:48.103Z,5.43
2022-10-29T09:52:00.695Z,4.95
2022-10-29T09:53:02.898Z,4.95
2022-10-29T09:54:05.666Z,5.22
2022-10-29T09:55:25.559Z,4.55
2022-10-29T09:56:28.195Z,5.15
2022-10-29T09:57:34.187Z,6.93
2022-10-29T09:58:45.160Z,4.78
2022-10-29T09:59:53.691Z,5.60
2022-10-29T10:00:57.189Z,6.10
2022-10-29T10:02:00.052Z,5.28
2022-10-29T10:03:15.143Z,5.40
2022-10-29T10:04:27.777Z,4.72
2022-10-29T10:05:32.804Z,4.72
2022-10-29T10:07:02.385Z,5.63
2022-10-29T10:08:13.661Z,5.88
2022-10-29T10:09:15.800Z,5.40
2022-10-29T10:10:23.311Z,5.20
2022-10-29T10:11:33.754Z,6.10
2022-10-29T10:12:38.598Z,4.53
2022-10-29T10:13:56.024Z,5.43
2022-10-29T10:15:31.100Z,4.68
2022-10-29T10:16:33.744Z,5.47
2022-10-29T10:18:00.345Z,5.57
2022-10-29T10:19:03.053Z,15.32
2022-10-29T10:20:26.650Z,11.57
2022-10-29T10:21:32.056Z,7.50
2022-10-29T10:22:34.240Z,6.93
2022-10-29T10:23:53.465Z,7.25
2022-10-29T10:24:56.064Z,7.25
2022-10-29T10:26:02.356Z,9.57
2022-10-29T10:27:18.345Z,5.80
2022-10-29T10:28:32.127Z,5.95
2022-10-29T10:29:34.285Z,5.57
2022-10-29T10:30:36.857Z,5.68
2022-10-29T10:31:40.752Z,6.20
2022-10-29T10:32:42.937Z,5.22
2022-10-29T10:33:54.626Z,6.07
2022-10-29T10:34:56.797Z,5.78
2022-10-29T10:36:08.439Z,6.05
2022-10-29T10:37:10.514Z,4.72
2022-10-29T10:38:14.789Z,5.10
2022-10-29T10:39:28.597Z,5.78
2022-10-29T10:40:30.960Z,5.97
2022-10-29T10:41:35.487Z,4.95
2022-10-29T10:42:42.865Z,5.75
2022-10-29T10:43:46.855Z,6.15
2022-10-29T10:45:14.485Z,5.38
2022-10-29T10:46:25.051Z,5.53
2022-10-29T10:47:36.282Z,5.45
2022-10-29T10:48:38.750Z,6.90
2022-10-29T10:49:41.115Z,5.22
2022-10-29T10:50:43.272Z,5.60
2022-10-29T10:51:54.819Z,6.05
2022-10-29T10:53:04.615Z,5.18
2022-10-29T10:54:30.101Z,5.97
2022-10-29T10:55:39.866Z,6.50
2022-10-29T10:56:56.692Z,5.43
2022-10-29T10:58:23.432Z,5.50
2022-10-29T10:59:38.041Z,5.35
2022-10-29T11:00:55.705Z,5.13
2022-10-29T11:02:00.754Z,5.75
2022-10-29T11:03:08.840Z,5.50
2022-10-29T11:04:18.704Z,6.03
2022-10-29T11:05:24.811Z,5.50
2022-10-29T11:06:37.564Z,5.53
2022-10-29T11:07:44.448Z,8.77
2022-10-29T11:08:57.022Z,7.50
2022-10-29T11:10:03.060Z,8.55
2022-10-29T11:11:37.401Z,9.00
2022-10-29T11:12:48.244Z,10.48
2022-10-29T11:13:51.959Z,7.60
2022-10-29T11:14:59.094Z,6.60
2022-10-29T11:16:39.611Z,5.82
2022-10-29T11:17:59.968Z,5.10
2022-10-29T11:19:31.336Z,5.50
2022-10-29T11:20:38.228Z,6.15
2022-10-29T11:21:43.796Z,6.07
2022-10-29T11:23:04.869Z,6.13
2022-10-29T11:24:18.126Z,6.03
2022-10-29T11:25:27.742Z,6.22
2022-10-29T11:26:50.434Z,5.43
2022-10-29T11:27:59.724Z,6.13
2022-10-29T11:29:35.224Z,5.72
2022-10-29T11:30:44.631Z,5.88
2022-10-29T11:31:58.544Z,7.15
2022-10-29T11:34:35.482Z,6.35
2022-10-29T11:35:42.072Z,5.60
2022-10-29T11:37:05.548Z,6.45
2022-10-29T11:38:44.978Z,7.18
2022-10-29T11:39:56.452Z,6.85
2022-10-29T11:41:10.210Z,5.57
2022-10-29T11:42:13.688Z,6.00
2022-10-29T11:43:19.656Z,6.57
2022-10-29T11:44:22.203Z,8.80
2022-10-29T11:45:42.243Z,7.95
2022-10-29T11:47:06.692Z,7.82
2022-10-29T11:48:09.059Z,8.05
2022-10-29T11:49:52.388Z,7.38
2022-10-29T11:51:25.961Z,5.53
2022-10-29T11:52:52.418Z,6.32
2022-10-29T11:54:22.828Z,6.28
2022-10-29T11:55:50.119Z,6.75
2022-10-29T11:57:01.248Z,5.85
2022-10-29T11:58:23.141Z,7.22
2022-10-29T12:00:14.163Z,6.68
2022-10-29T12:01:36.745Z,7.90
2022-10-29T12:02:38.860Z,7.28
2022-10-29T12:03:59.658Z,7.10
2022-10-29T12:05:24.071Z,6.65
2022-10-29T12:06:39.608Z,6.60
2022-10-29T12:07:56.720Z,6.40
2022-10-29T12:09:37.734Z,6.50
2022-10-29T12:10:52.652Z,6.45
2022-10-29T12:12:21.005Z,6.72
2022-10-29T12:13:39.563Z,7.10
2022-10-29T12:15:04.310Z,7.03
2022-10-29T12:16:22.456Z,7.38
2022-10-29T12:17:53.594Z,7.72
2022-10-29T12:19:37.431Z,7.20
2022-10-29T12:20:44.708Z,8.07
2022-10-29T12:21:57.350Z,7.18
2022-10-29T12:23:16.353Z,7.00
2022-10-29T12:24:30.768Z,7.20
2022-10-29T12:25:56.014Z,7.65
2022-10-29T12:27:09.052Z,7.57
2022-10-29T12:28:47.759Z,6.93
2022-10-29T12:29:58.989Z,7.45
2022-10-29T12:31:08.922Z,7.38
2022-10-29T12:32:34.936Z,7.25
2022-10-29T12:33:50.193Z,7.32
2022-10-29T12:35:02.799Z,8.15
2022-10-29T12:36:18.541Z,7.28
2022-10-29T12:37:42.471Z,8.32
2022-10-29T12:38:52.724Z,8.70
2022-10-29T12:40:01.124Z,8.02
2022-10-29T12:41:08.791Z,7.50
2022-10-29T12:42:22.959Z,7.80
2022-10-29T12:43:35.120Z,8.05
2022-10-29T12:44:55.194Z,7.45
2022-10-29T12:46:28.398Z,7.32
2022-10-29T12:47:52.660Z,7.68
2022-10-29T12:49:18.347Z,8.73
2022-10-29T12:50:33.682Z,7.32
2022-10-29T12:53:25.635Z,7.70
2022-10-29T12:54:30.889Z,7.00
2022-10-29T12:55:34.900Z,7.45
2022-10-29T12:56:37.614Z,6.90
2022-10-29T12:57:39.924Z,6.82
2022-10-29T12:58:59.850Z,7.38
2022-10-29T13:00:40.656Z,7.70
2022-10-29T13:02:10.027Z,7.00
2022-10-29T13:03:08.131Z,6.95
2022-10-29T13:04:32.821Z,7.30
2022-10-29T13:05:38.396Z,6.75
2022-10-29T13:06:43.346Z,8.00
2022-10-29T13:07:45.444Z,7.30
2022-10-29T13:08:57.428Z,7.45
2022-10-29T13:10:29.802Z,7.18
2022-10-29T13:11:46.210Z,7.90
2022-10-29T13:13:00.072Z,7.03
2022-10-29T13:14:02.876Z,7.57
2022-10-29T13:15:15.637Z,8.10
2022-10-29T13:16:23.685Z,7.40
2022-10-29T13:17:25.980Z,7.72
2022-10-29T13:19:12.436Z,7.82
2022-10-29T13:20:21.726Z,7.28
2022-10-29T13:21:56.580Z,7.95
2022-10-29T13:23:00.110Z,8.18
2022-10-29T13:24:06.108Z,7.95
2022-10-29T13:25:32.999Z,7.57
2022-10-29T13:27:16.450Z,7.28
2022-10-29T13:28:18.552Z,6.88
2022-10-29T13:30:17.401Z,7.28
2022-10-29T13:31:21.020Z,6.93
2022-10-29T13:32:37.270Z,8.23
2022-10-29T13:33:39.335Z,7.32
2022-10-29T13:34:56.917Z,7.57
2022-10-29T13:36:07.308Z,7.53
2022-10-29T13:37:49.222Z,6.30
2022-10-29T13:39:04.620Z,7.45
2022-10-29T13:40:31.205Z,7.05
2022-10-29T13:41:44.710Z,7.55
2022-10-29T13:42:53.510Z,7.65
2022-10-29T13:44:04.622Z,7.80
2022-10-29T13:45:11.993Z,7.32
2022-10-29T13:46:14.275Z,8.18
2022-10-29T13:47:21.752Z,8.35
2022-10-29T13:48:32.281Z,7.40
2022-10-29T13:49:37.371Z,7.78
2022-10-29T13:50:40.567Z,7.60
2022-10-29T13:51:54.785Z,9.30
2022-10-29T13:53:00.608Z,8.45
2022-10-29T13:55:33.671Z,7.10
2022-10-29T13:56:39.799Z,7.78
2022-10-29T13:58:04.291Z,8.25
2022-10-29T13:59:14.911Z,7.70
2022-10-29T14:00:19.622Z,7.03
2022-10-29T14:01:22.963Z,7.93
2022-10-29T14:02:34.494Z,12.40
2022-10-29T14:03:39.427Z,10.80
2022-10-29T14:04:48.906Z,7.93
2022-10-29T14:06:00.549Z,8.55
2022-10-29T14:07:06.451Z,7.80
2022-10-29T14:08:14.763Z,7.60
2022-10-29T14:09:20.081Z,6.80
2022-10-29T14:10:27.221Z,9.05
2022-10-29T14:11:39.096Z,8.10
2022-10-29T14:12:42.479Z,7.50
2022-10-29T14:13:49.209Z,8.18
2022-10-29T14:15:14.836Z,7.90
2022-10-29T14:16:20.518Z,7.78
2022-10-29T14:17:22.874Z,7.97
2022-10-29T14:18:26.821Z,8.18
2022-10-29T14:19:29.162Z,7.75
2022-10-29T14:20:31.313Z,8.13
2022-10-29T14:21:38.855Z,8.90
2022-10-29T14:22:41.739Z,7.45
2022-10-29T14:24:05.431Z,8.23
2022-10-29T14:25:26.254Z,7.13
2022-10-29T14:26:30.993Z,7.53
2022-10-29T14:27:33.460Z,8.15
2022-10-29T14:28:35.612Z,8.48
2022-10-29T14:29:38.598Z,8.82
2022-10-29T14:30:40.795Z,8.45
2022-10-29T14:31:42.980Z,8.43
2022-10-29T14:32:46.425Z,8.57
2022-10-29T14:33:57.864Z,8.95
2022-10-29T14:35:00.413Z,8.70
2022-10-29T14:36:08.909Z,9.13
2022-10-29T14:37:22.141Z,9.73
2022-10-29T14:38:34.671Z,8.90
2022-10-29T14:39:57.140Z,11.55
2022-10-29T14:41:01.135Z,10.85
2022-10-29T14:42:03.500Z,10.02
2022-10-29T14:43:05.997Z,10.20
2022-10-29T14:44:17.665Z,11.27
2022-10-29T14:45:30.396Z,11.38
2022-10-29T14:46:34.949Z,9.63
2022-10-29T14:47:38.013Z,11.38
2022-10-29T14:48:51.256Z,12.73
2022-10-29T14:49:56.270Z,12.65
2022-10-29T14:50:58.877Z,14.95
2022-10-29T14:52:04.303Z,13.02
2022-10-29T14:53:20.793Z,13.90
2022-10-29T14:54:29.782Z,14.45
2022-10-29T14:55:38.515Z,12.00
2022-10-29T14:56:41.603Z,11.75
2022-10-29T14:57:49.548Z,10.60
2022-10-29T14:58:52.112Z,10.57
2022-10-29T14:59:58.060Z,10.45
2022-10-29T15:01:03.728Z,9.02
2022-10-29T15:02:36.497Z,9.15
2022-10-29T15:03:35.392Z,9.23
2022-10-29T15:04:50.466Z,8.80
2022-10-29T15:06:11.666Z,8.02
2022-10-29T15:07:34.732Z,9.57
2022-10-29T15:08:42.503Z,8.20
2022-10-29T15:09:47.661Z,8.43
2022-10-29T15:10:52.196Z,8.70
2022-10-29T15:12:18.225Z,9.00
2022-10-29T15:13:31.905Z,8.10
2022-10-29T15:14:37.704Z,8.68
2022-10-29T15:15:40.036Z,8.00
2022-10-29T15:16:46.981Z,8.48
2022-10-29T15:18:12.909Z,8.65
2022-10-29T15:19:17.134Z,8.30
2022-10-29T15:20:45.584Z,9.23
2022-10-29T15:21:47.771Z,8.02